createdAt,value
2023-02-11T00:01:30.632Z,101666.34
2023-02-11T00:04:00.159Z,101678.66
2023-02-11T00:06:29.271Z,101710.31
2023-02-11T00:08:58.945Z,101699.75
2023-02-11T00:11:30.473Z,101704.13
2023-02-11T00:14:00.823Z,101684.78
2023-02-11T00:16:29.566Z,101672.44
2023-02-11T00:18:57.763Z,101708.47
2023-02-11T00:21:27.867Z,101685.59
2023-02-11T00:23:57.165Z,101651.28
2023-02-11T00:26:27.050Z,101601.16
2023-02-11T00:28:57.317Z,101649.53
2023-02-11T00:31:26.487Z,101623.16
2023-02-11T00:33:55.048Z,101660.09
2023-02-11T00:36:24.858Z,101671.53
2023-02-11T00:38:55.464Z,101646.91
2023-02-11T00:41:23.908Z,101661.88
2023-02-11T00:43:52.563Z,101692.66
2023-02-11T00:46:22.787Z,101675.06
2023-02-11T00:48:55.003Z,101694.44
2023-02-11T00:51:23.027Z,101698.81
2023-02-11T00:53:51.203Z,101725.16
2023-02-11T00:56:19.093Z,101653.03
2023-02-11T00:58:47.013Z,101671.50
2023-02-11T01:01:15.863Z,101697.00
2023-02-11T01:03:45.105Z,101694.38
2023-02-11T01:06:13.341Z,101695.22
2023-02-11T01:08:41.344Z,101701.41
2023-02-11T01:11:14.611Z,101740.09
2023-02-11T01:13:42.602Z,101747.13
2023-02-11T01:16:12.046Z,101745.38
2023-02-11T01:18:41.911Z,101731.31
2023-02-11T01:21:11.210Z,101711.97
2023-02-11T01:23:39.088Z,101688.22
2023-02-11T01:26:08.376Z,101696.09
2023-02-11T01:28:36.632Z,101702.28
2023-02-11T01:31:05.513Z,101748.91
2023-02-11T01:33:33.628Z,101738.34
2023-02-11T01:36:03.737Z,101728.66
2023-02-11T01:38:34.243Z,101721.63
2023-02-11T01:41:06.079Z,101766.47
2023-02-11T01:43:36.762Z,101745.34
2023-02-11T01:46:15.651Z,101725.09
2023-02-11T01:48:46.630Z,101723.38
2023-02-11T01:51:18.021Z,101722.50
2023-02-11T01:54:06.839Z,101733.06
2023-02-11T01:56:56.079Z,101752.44
2023-02-11T01:59:28.243Z,101788.50
2023-02-11T02:02:00.036Z,101790.25
2023-02-11T02:04:34.150Z,101794.63
2023-02-11T02:07:07.462Z,101794.63
2023-02-11T02:09:42.748Z,101770.91
2023-02-11T02:12:10.687Z,101825.47
2023-02-11T02:14:40.641Z,101818.41
2023-02-11T02:17:10.833Z,101779.69
2023-02-11T02:20:04.260Z,101770.00
2023-02-11T02:22:57.968Z,101806.97
2023-02-11T02:25:59.303Z,101806.09
2023-02-11T02:28:52.256Z,101787.59
2023-02-11T02:31:41.752Z,101805.19
2023-02-11T02:34:17.479Z,101822.78
2023-02-11T02:36:50.239Z,101804.31
2023-02-11T02:39:25.051Z,101836.00
2023-02-11T02:41:54.618Z,101858.88
2023-02-11T02:44:22.790Z,101829.81
2023-02-11T02:46:50.744Z,101860.63
2023-02-11T02:49:20.101Z,101805.19
2023-02-11T02:52:05.047Z,101845.69
2023-02-11T02:55:08.783Z,101858.00
2023-02-11T02:57:46.377Z,101855.34
2023-02-11T03:00:25.004Z,101858.88
2023-02-11T03:03:04.888Z,101851.78
2023-02-11T03:05:43.716Z,101840.38
2023-02-11T03:08:18.273Z,101850.06
2023-02-11T03:10:49.398Z,101887.88
2023-02-11T03:13:19.945Z,101913.44
2023-02-11T03:15:53.542Z,101860.59
2023-02-11T03:18:26.065Z,101883.47
2023-02-11T03:20:57.310Z,101873.78
2023-02-11T03:23:30.661Z,101910.78
2023-02-11T03:26:03.866Z,101932.81
2023-02-11T03:28:34.929Z,101925.75
2023-02-11T03:31:11.964Z,101930.13
2023-02-11T03:33:45.185Z,101910.75
2023-02-11T03:36:19.096Z,101916.94
2023-02-11T03:38:51.682Z,101930.13
2023-02-11T03:41:24.592Z,101927.50
2023-02-11T03:43:57.056Z,101958.34
2023-02-11T03:46:31.687Z,101986.53
2023-02-11T03:49:04.555Z,101993.56
2023-02-11T03:51:34.767Z,102000.63
2023-02-11T03:54:05.345Z,102027.94
2023-02-11T03:56:39.578Z,102027.06
2023-02-11T03:59:07.415Z,102027.06
2023-02-11T04:01:35.744Z,102035.00
2023-02-11T04:04:03.802Z,102041.16
2023-02-11T04:06:33.043Z,102056.13
2023-02-11T04:09:00.941Z,102028.81
2023-02-11T04:11:29.418Z,102065.81
2023-02-11T04:13:57.341Z,102076.41
2023-02-11T04:16:25.308Z,102079.91
2023-02-11T04:18:53.308Z,102077.28
2023-02-11T04:21:21.319Z,102101.09
2023-02-11T04:23:50.681Z,102097.56
2023-02-11T04:26:18.998Z,102095.78
2023-02-11T04:28:46.880Z,102115.19
2023-02-11T04:31:14.789Z,102121.31
2023-02-11T04:33:42.530Z,102131.91
2023-02-11T04:36:10.626Z,102129.25
2023-02-11T04:38:38.424Z,102124.84
2023-02-11T04:41:07.751Z,102139.84
2023-02-11T04:43:35.837Z,102113.41
2023-02-11T04:46:03.745Z,102132.78
2023-02-11T04:48:31.639Z,102117.81
2023-02-11T04:50:59.726Z,102127.50
2023-02-11T04:53:27.613Z,102138.97
2023-02-11T04:55:55.623Z,102162.78
2023-02-11T04:58:25.362Z,102158.38
2023-02-11T05:00:53.519Z,102166.28
2023-02-11T05:03:21.419Z,102166.31
2023-02-11T05:05:50.110Z,102165.41
2023-02-11T05:08:18.148Z,102168.94
2023-02-11T05:10:48.328Z,102173.31
2023-02-11T05:13:16.288Z,102174.22
2023-02-11T05:15:45.585Z,102166.25
2023-02-11T05:18:14.975Z,102170.69
2023-02-11T05:20:44.009Z,102171.56
2023-02-11T05:23:12.118Z,102187.44
2023-02-11T05:25:40.252Z,102179.47
2023-02-11T05:28:08.561Z,102192.69
2023-02-11T05:30:36.500Z,102160.06
2023-02-11T05:33:06.059Z,102187.41
2023-02-11T05:35:33.937Z,102182.13
2023-02-11T05:38:01.878Z,102183.88
2023-02-11T05:40:29.896Z,102170.63
2023-02-11T05:42:57.796Z,102181.22
2023-02-11T05:45:25.646Z,102170.63
2023-02-11T05:47:53.516Z,102167.13
2023-02-11T05:50:23.082Z,102185.66
2023-02-11T05:52:51.047Z,102187.41
2023-02-11T05:55:19.213Z,102189.16
2023-02-11T05:57:47.219Z,102176.81
2023-02-11T06:00:16.407Z,102192.66
2023-02-11T06:02:44.377Z,102192.66
2023-02-11T06:05:12.539Z,102195.34
2023-02-11T06:07:41.824Z,102182.06
2023-02-11T06:10:10.409Z,102168.00
2023-02-11T06:12:42.378Z,102164.44
2023-02-11T06:15:10.470Z,102149.41
2023-02-11T06:17:38.364Z,102160.00
2023-02-11T06:20:08.614Z,102152.06
2023-02-11T06:22:36.585Z,102139.72
2023-02-11T06:25:06.982Z,102158.25
2023-02-11T06:27:34.870Z,102147.63
2023-02-11T06:30:02.829Z,102144.97
2023-02-11T06:32:46.364Z,102125.56
2023-02-11T06:35:15.840Z,102143.19
2023-02-11T06:37:44.026Z,102133.47
2023-02-11T06:40:13.702Z,102125.50
2023-02-11T06:42:41.852Z,102125.53
2023-02-11T06:45:10.967Z,102121.97
2023-02-11T06:47:40.056Z,102111.38
2023-02-11T06:50:12.197Z,102109.59
2023-02-11T06:52:40.174Z,102107.81
2023-02-11T06:55:08.425Z,102106.94
2023-02-11T06:57:37.921Z,102107.81
2023-02-11T07:00:07.323Z,102097.22
2023-02-11T07:02:35.300Z,102108.69
2023-02-11T07:05:03.200Z,102096.38
2023-02-11T07:07:34.083Z,102095.47
2023-02-11T07:10:04.058Z,102096.34
2023-02-11T07:12:32.111Z,102089.25
2023-02-11T07:15:02.054Z,102082.19
2023-02-11T07:17:30.026Z,102068.91
2023-02-11T07:19:57.913Z,102068.03
2023-02-11T07:22:25.742Z,102065.44
2023-02-11T07:24:53.661Z,102057.47
2023-02-11T07:27:21.557Z,102073.34
2023-02-11T07:29:49.316Z,102057.47
2023-02-11T07:32:18.496Z,102073.34
2023-02-11T07:34:48.026Z,102070.69
2023-02-11T07:37:16.056Z,102090.03
2023-02-11T07:39:44.155Z,102066.28
2023-02-11T07:42:12.149Z,102079.47
2023-02-11T07:44:40.291Z,102115.63
2023-02-11T07:47:08.356Z,102093.53
2023-02-11T07:49:37.721Z,102078.50
2023-02-11T07:52:07.243Z,102095.28
2023-02-11T07:54:35.293Z,102107.66
2023-02-11T07:57:03.208Z,102114.72
2023-02-11T07:59:33.276Z,102109.41
2023-02-11T08:02:01.261Z,102126.16
2023-02-11T08:04:29.184Z,102118.19
2023-02-11T08:06:59.269Z,102130.50
2023-02-11T08:09:27.385Z,102127.88
2023-02-11T08:11:55.441Z,102111.94
2023-02-11T08:14:25.318Z,102125.19
2023-02-11T08:16:53.536Z,102146.38
2023-02-11T08:19:21.503Z,102156.09
2023-02-11T08:21:49.312Z,102141.09
2023-02-11T08:24:18.591Z,102163.09
2023-02-11T08:26:46.968Z,102133.03
2023-02-11T08:29:17.934Z,102148.06
2023-02-11T08:31:48.004Z,102146.31
2023-02-11T08:34:18.398Z,102130.41
2023-02-11T08:36:48.103Z,102140.97
2023-02-11T08:39:20.646Z,102115.38
2023-02-11T08:41:50.094Z,102114.50
2023-02-11T08:44:19.163Z,102125.97
2023-02-11T08:46:47.413Z,102121.53
2023-02-11T08:49:15.679Z,102135.63
2023-02-11T08:51:44.867Z,102107.38
2023-02-11T08:54:13.340Z,102110.88
2023-02-11T08:56:43.304Z,102104.66
2023-02-11T08:59:14.707Z,102102.03
2023-02-11T09:01:44.257Z,102116.13
2023-02-11T09:04:12.490Z,102114.31
2023-02-11T09:06:40.565Z,102113.41
2023-02-11T09:09:13.437Z,102111.63
2023-02-11T09:11:44.223Z,102134.56
2023-02-11T09:14:18.387Z,102143.34
2023-02-11T09:16:46.496Z,102151.22
2023-02-11T09:19:14.487Z,102128.25
2023-02-11T09:21:42.377Z,102126.47
2023-02-11T09:24:11.149Z,102099.94
2023-02-11T09:26:39.570Z,102092.84
2023-02-11T09:29:08.861Z,102118.47
2023-02-11T09:31:37.104Z,102121.06
2023-02-11T09:34:07.086Z,102119.28
2023-02-11T09:36:38.343Z,102117.56
2023-02-11T09:39:08.463Z,102126.38
2023-02-11T09:41:46.348Z,102144.09
2023-02-11T09:44:25.679Z,102173.25
2023-02-11T09:46:58.006Z,102159.97
2023-02-11T09:49:33.124Z,102183.84
2023-02-11T09:52:07.775Z,102206.88
2023-02-11T09:54:54.156Z,102211.34
2023-02-11T09:57:29.264Z,102218.44
2023-02-11T09:59:59.505Z,102243.13
2023-02-11T10:02:42.908Z,102223.66
2023-02-11T10:05:32.665Z,102244.91
2023-02-11T10:08:14.639Z,102243.13
2023-02-11T10:10:53.922Z,102237.84
2023-02-11T10:13:54.701Z,102254.69
2023-02-11T10:16:48.963Z,102275.88
2023-02-11T10:19:48.243Z,102277.66
2023-02-11T10:22:24.763Z,102279.44
2023-02-11T10:24:58.786Z,102287.41
2023-02-11T10:27:32.530Z,102308.59
2023-02-11T10:30:11.057Z,102300.63
2023-02-11T10:32:50.518Z,102290.94
2023-02-11T10:35:25.235Z,102286.50
2023-02-11T10:37:58.071Z,102325.41
2023-02-11T10:40:30.931Z,102324.44
2023-02-11T10:43:07.954Z,102327.13
2023-02-11T10:45:44.710Z,102332.47
2023-02-11T10:48:40.779Z,102321.00
2023-02-11T10:51:16.302Z,102328.91
2023-02-11T10:53:53.439Z,102348.38
2023-02-11T10:56:28.432Z,102335.09
2023-02-11T10:59:02.118Z,102354.59
2023-02-11T11:01:42.236Z,102366.94
2023-02-11T11:04:40.792Z,102381.09
2023-02-11T11:07:24.510Z,102356.34
2023-02-11T11:10:07.025Z,102362.56
2023-02-11T11:12:46.452Z,102374.06
2023-02-11T11:15:22.118Z,102375.78
2023-02-11T11:17:51.415Z,102371.34
2023-02-11T11:20:28.744Z,102357.25
2023-02-11T11:23:18.321Z,102361.69
2023-02-11T11:26:00.828Z,102369.59
2023-02-11T11:28:33.314Z,102364.28
2023-02-11T11:31:02.331Z,102365.13
2023-02-11T11:33:34.474Z,102356.25
2023-02-11T11:36:08.803Z,102327.94
2023-02-11T11:38:47.810Z,102334.09
2023-02-11T11:41:27.759Z,102336.75
2023-02-11T11:44:00.270Z,102300.44
2023-02-11T11:46:31.602Z,102296.91
2023-02-11T11:49:24.781Z,102273.88
2023-02-11T11:52:15.873Z,102287.13
2023-02-11T11:54:57.287Z,102280.03
2023-02-11T11:57:30.137Z,102283.53
2023-02-11T11:59:59.623Z,102264.06
2023-02-11T12:02:55.212Z,102258.75
2023-02-11T12:05:37.587Z,102254.34
2023-02-11T12:08:20.511Z,102285.34
2023-02-11T12:11:08.632Z,102297.72
2023-02-11T12:13:47.223Z,102327.72
2023-02-11T12:16:29.051Z,102333.94
2023-02-11T12:19:33.858Z,102328.63
2023-02-11T12:22:11.001Z,102367.50
2023-02-11T12:25:26.470Z,102365.72
2023-02-11T12:28:04.679Z,102393.09
2023-02-11T12:30:54.118Z,102398.38
2023-02-11T12:33:37.704Z,102387.81
2023-02-11T12:36:14.214Z,102405.50
2023-02-11T12:39:05.687Z,102372.81
2023-02-11T12:42:06.680Z,102412.56
2023-02-11T12:44:50.816Z,102409.91
2023-02-11T12:47:32.679Z,102390.44
2023-02-11T12:50:17.382Z,102396.59
2023-02-11T12:52:58.051Z,102420.50
2023-02-11T12:55:35.845Z,102416.03
2023-02-11T12:58:07.351Z,102418.75
2023-02-11T13:00:44.450Z,102429.31
2023-02-11T13:03:19.982Z,102402.78
2023-02-11T13:05:52.424Z,102396.66
2023-02-11T13:08:29.129Z,102428.50
2023-02-11T13:11:08.190Z,102400.22
2023-02-11T13:13:49.267Z,102426.78
2023-02-11T13:16:24.163Z,102435.66
2023-02-11T13:18:57.986Z,102433.00
2023-02-11T13:21:50.018Z,102433.00
2023-02-11T13:24:28.384Z,102442.75
2023-02-11T13:27:10.260Z,102448.06
2023-02-11T13:30:15.700Z,102461.34
2023-02-11T13:33:21.764Z,102464.91
2023-02-11T13:36:20.087Z,102496.78
2023-02-11T13:39:03.678Z,102480.00
2023-02-11T13:41:37.887Z,102498.59
2023-02-11T13:44:26.300Z,102524.25
2023-02-11T13:47:16.237Z,102504.75
2023-02-11T13:49:54.697Z,102501.22
2023-02-11T13:52:27.539Z,102508.31
2023-02-11T13:54:59.399Z,102533.97
2023-02-11T13:57:42.856Z,102543.75
2023-02-11T14:00:51.004Z,102552.56
2023-02-11T14:03:50.240Z,102562.31
2023-02-11T14:06:39.961Z,102542.84
2023-02-11T14:09:39.971Z,102565.84
2023-02-11T14:12:33.957Z,102556.97
2023-02-11T14:15:19.975Z,102576.47
2023-02-11T14:18:03.042Z,102586.19
2023-02-11T14:20:39.286Z,102591.50
2023-02-11T14:23:10.057Z,102597.72
2023-02-11T14:25:40.845Z,102608.31
2023-02-11T14:28:17.848Z,102622.47
2023-02-11T14:30:56.152Z,102604.78
2023-02-11T14:33:52.812Z,102603.03
2023-02-11T14:36:43.789Z,102616.31
2023-02-11T14:39:31.288Z,102622.53
2023-02-11T14:42:02.874Z,102644.69
2023-02-11T14:44:33.763Z,102642.91
2023-02-11T14:47:02.360Z,102660.63
2023-02-11T14:49:38.050Z,102675.66
2023-02-11T14:52:17.714Z,102680.13
2023-02-11T14:54:49.958Z,102704.03
2023-02-11T14:57:25.245Z,102710.22
2023-02-11T15:00:01.881Z,102722.63
2023-02-11T15:02:34.705Z,102739.41
2023-02-11T15:05:19.388Z,102751.81
2023-02-11T15:08:02.653Z,102742.09
2023-02-11T15:10:46.730Z,102769.53
2023-02-11T15:13:27.197Z,102766.88
2023-02-11T15:15:59.342Z,102790.78
2023-02-11T15:18:38.669Z,102803.19
2023-02-11T15:21:23.421Z,102796.97
2023-02-11T15:24:09.403Z,102792.56
2023-02-11T15:26:38.494Z,102801.41
2023-02-11T15:29:25.854Z,102798.75
2023-02-11T15:32:17.280Z,102834.16
2023-02-11T15:34:48.897Z,102840.34
2023-02-11T15:37:35.721Z,102832.41
2023-02-11T15:40:30.501Z,102830.63
2023-02-11T15:43:00.178Z,102854.50
2023-02-11T15:45:49.180Z,102847.44
2023-02-11T15:48:24.867Z,102864.28
2023-02-11T15:51:10.182Z,102853.63
2023-02-11T15:53:43.689Z,102869.59
2023-02-11T15:56:31.986Z,102862.50
2023-02-11T15:59:28.079Z,102872.25
2023-02-11T16:02:02.016Z,102879.31
2023-02-11T16:04:32.198Z,102890.81
2023-02-11T16:07:03.845Z,102882.00
2023-02-11T16:09:41.936Z,102915.63
2023-02-11T16:12:27.301Z,102901.47
2023-02-11T16:14:57.287Z,102925.38
2023-02-11T16:17:33.412Z,102915.63
2023-02-11T16:20:11.495Z,102916.53
2023-02-11T16:22:40.447Z,102926.28
2023-02-11T16:25:24.538Z,102914.75
2023-02-11T16:27:56.379Z,102924.50
2023-02-11T16:30:33.005Z,102931.56
2023-02-11T16:33:14.490Z,102936.00
2023-02-11T16:35:54.134Z,102946.66
2023-02-11T16:38:40.748Z,102943.97
2023-02-11T16:41:20.037Z,102959.03
2023-02-11T16:43:54.964Z,102964.34
2023-02-11T16:46:27.851Z,102963.44
2023-02-11T16:49:02.431Z,102952.81
2023-02-11T16:51:31.530Z,102947.50
2023-02-11T16:54:04.022Z,102958.16
2023-02-11T16:56:34.875Z,102975.84
2023-02-11T16:59:13.470Z,102979.38
2023-02-11T17:01:58.084Z,102986.47
2023-02-11T17:04:37.970Z,103005.94
2023-02-11T17:07:14.233Z,102991.81
2023-02-11T17:09:42.420Z,103002.41
2023-02-11T17:12:15.507Z,103031.66
2023-02-11T17:14:48.534Z,103037.88
2023-02-11T17:17:18.525Z,103024.53
2023-02-11T17:19:51.837Z,103031.63
2023-02-11T17:22:20.657Z,103042.28
2023-02-11T17:24:48.822Z,103025.44
2023-02-11T17:27:21.249Z,103043.13
2023-02-11T17:30:08.117Z,103048.44
2023-02-11T17:32:36.054Z,103051.09
2023-02-11T17:35:08.073Z,103055.53
2023-02-11T17:37:36.754Z,103048.47
2023-02-11T17:40:10.665Z,103041.38
2023-02-11T17:42:53.928Z,103005.94
2023-02-11T17:45:34.484Z,103026.31
2023-02-11T17:48:02.668Z,103034.25
2023-02-11T17:50:38.077Z,103016.56
2023-02-11T17:53:11.536Z,103021.88
2023-02-11T17:55:45.000Z,103013.91
2023-02-11T17:58:15.980Z,103022.75
2023-02-11T18:00:52.055Z,103021.84
2023-02-11T18:03:21.523Z,103016.53
2023-02-11T18:05:59.142Z,103022.75
2023-02-11T18:08:31.058Z,103030.69
2023-02-11T18:11:02.200Z,103026.28
2023-02-11T18:13:34.711Z,103020.09
2023-02-11T18:16:18.441Z,103026.28
2023-02-11T18:18:46.984Z,103041.31
2023-02-11T18:21:16.497Z,103067.91
2023-02-11T18:23:50.679Z,103066.13
2023-02-11T18:26:21.145Z,103062.56
2023-02-11T18:28:52.810Z,103059.91
2023-02-11T18:31:25.712Z,103076.72
2023-02-11T18:33:54.862Z,103072.31
2023-02-11T18:36:38.041Z,103108.63
2023-02-11T18:39:12.351Z,103092.66
2023-02-11T18:41:48.483Z,103099.78
2023-02-11T18:44:22.601Z,103121.03
2023-02-11T18:49:47.920Z,103123.66
2023-02-11T18:52:27.253Z,103103.28
2023-02-11T18:55:11.886Z,103074.06
2023-02-11T18:57:47.073Z,103079.38
2023-02-11T19:00:20.516Z,103071.38
2023-02-11T19:02:56.468Z,103096.19
2023-02-11T19:05:36.468Z,103100.59
2023-02-11T19:08:08.702Z,103113.91
2023-02-11T19:10:42.171Z,103123.66
2023-02-11T19:13:14.422Z,103122.78
2023-02-11T19:15:43.726Z,103133.41
2023-02-11T19:18:28.064Z,103141.38
2023-02-11T19:21:01.011Z,103136.94
2023-02-11T19:23:36.929Z,103138.72
2023-02-11T19:26:12.090Z,103126.28
2023-02-11T19:28:48.026Z,103121.84
2023-02-11T19:31:17.730Z,103129.84
2023-02-11T19:33:47.751Z,103136.91
2023-02-11T19:36:23.934Z,103149.31
2023-02-11T19:39:12.239Z,103128.94
2023-02-11T19:41:46.275Z,103134.25
2023-02-11T19:44:20.188Z,103144.88
2023-02-11T19:47:00.901Z,103153.75
2023-02-11T19:49:43.745Z,103143.13
2023-02-11T19:52:26.401Z,103141.34
2023-02-11T19:54:55.123Z,103144.00
2023-02-11T19:57:32.867Z,103133.38
2023-02-11T20:00:07.970Z,103136.94
2023-02-11T20:02:35.881Z,103139.59
2023-02-11T20:05:06.794Z,103132.50
2023-02-11T20:07:35.184Z,103129.84
2023-02-11T20:10:03.783Z,103107.72
2023-02-11T20:12:32.036Z,103111.25
2023-02-11T20:15:00.162Z,103110.38
2023-02-11T20:17:28.273Z,103106.84
2023-02-11T20:19:56.325Z,103101.53
2023-02-11T20:22:25.590Z,103105.06
2023-02-11T20:24:53.646Z,103075.84
2023-02-11T20:27:21.898Z,103069.66
2023-02-11T20:29:50.203Z,103062.56
2023-02-11T20:32:18.648Z,103038.63
2023-02-11T20:34:46.761Z,103024.44
2023-02-11T20:37:14.780Z,103053.69
2023-02-11T20:39:46.781Z,103049.25
2023-02-11T20:42:15.551Z,103031.53
2023-02-11T20:44:43.671Z,103010.28
2023-02-11T20:47:13.959Z,103017.38
2023-02-11T20:49:42.283Z,103002.31
2023-02-11T20:52:11.171Z,103029.75
2023-02-11T20:54:39.224Z,103015.56
2023-02-11T20:57:08.867Z,103023.53
2023-02-11T20:59:36.794Z,103020.00
2023-02-11T21:02:05.732Z,103023.53
2023-02-11T21:04:33.783Z,103020.00
2023-02-11T21:07:03.147Z,102998.72
2023-02-11T21:09:34.534Z,103010.22
2023-02-11T21:12:03.894Z,103004.94
2023-02-11T21:14:34.011Z,103017.31
2023-02-11T21:17:02.370Z,103003.13
2023-02-11T21:19:30.684Z,103028.78
2023-02-11T21:22:00.841Z,103019.97
2023-02-11T21:24:30.783Z,103003.13
2023-02-11T21:26:59.579Z,102989.81
2023-02-11T21:29:27.958Z,102988.03
2023-02-11T21:31:57.385Z,103004.84
2023-02-11T21:34:25.543Z,103012.78
2023-02-11T21:36:54.262Z,103022.50
2023-02-11T21:39:22.873Z,103019.84
2023-02-11T21:41:51.760Z,102999.50
2023-02-11T21:44:20.363Z,103007.47
2023-02-11T21:46:48.437Z,103010.09
2023-02-11T21:49:19.762Z,102996.78
2023-02-11T21:51:47.824Z,102990.56
2023-02-11T21:54:16.008Z,102986.09
2023-02-11T21:56:43.871Z,103002.91
2023-02-11T21:59:13.476Z,103022.34
2023-02-11T22:01:42.425Z,103033.81
2023-02-11T22:04:11.165Z,103037.31
2023-02-11T22:06:40.479Z,103071.84
2023-02-11T22:09:11.049Z,103085.13
2023-02-11T22:11:39.004Z,103104.56
2023-02-11T22:14:07.493Z,103121.41
2023-02-11T22:16:35.963Z,103109.00
2023-02-11T22:19:04.132Z,103136.41
2023-02-11T22:21:32.251Z,103166.53
2023-02-11T22:24:02.092Z,103181.56
2023-02-11T22:26:30.020Z,103192.22
2023-02-11T22:28:58.502Z,103192.22
2023-02-11T22:31:29.478Z,103204.63
2023-02-11T22:33:57.985Z,103189.56
2023-02-11T22:36:27.933Z,103182.50
2023-02-11T22:38:56.516Z,103201.97
2023-02-11T22:41:25.835Z,103197.53
2023-02-11T22:43:53.814Z,103186.91
2023-02-11T22:46:21.847Z,103184.25
2023-02-11T22:48:49.916Z,103181.56
2023-02-11T22:51:20.614Z,103166.50
2023-02-11T22:53:52.805Z,103171.81
2023-02-11T22:56:21.724Z,103191.22
2023-02-11T22:58:51.895Z,103207.16
2023-02-11T23:01:20.464Z,103213.38
2023-02-11T23:03:48.886Z,103235.50
2023-02-11T23:06:17.728Z,103246.16
2023-02-11T23:08:46.283Z,103253.25
2023-02-11T23:11:16.916Z,103233.75
2023-02-11T23:13:46.567Z,103247.06
2023-02-11T23:16:18.286Z,103218.72
2023-02-11T23:18:47.671Z,103217.84
2023-02-11T23:21:17.835Z,103224.94
2023-02-11T23:23:46.449Z,103207.22
2023-02-11T23:26:17.233Z,103209.00
2023-02-11T23:28:46.229Z,103223.19
2023-02-11T23:31:18.307Z,103216.09
2023-02-11T23:33:46.928Z,103197.50
2023-02-11T23:36:15.797Z,103195.75
2023-02-11T23:38:43.744Z,103201.06
2023-02-11T23:41:12.494Z,103186.91
2023-02-11T23:43:42.766Z,103185.16
2023-02-11T23:46:11.389Z,103179.84
2023-02-11T23:48:41.396Z,103196.69
2023-02-11T23:51:10.802Z,103166.56
2023-02-11T23:53:41.016Z,103174.53
2023-02-11T23:56:11.739Z,103178.09
2023-02-11T23:58:39.861Z,103158.63
